sensor_id;sensor_type;location;lat;lon;timestamp;pressure;altitude;pressure_sealevel;temperature;humidity
15884;BME280;8040;50.254;10.960;2023-07-20T00:08:32;97912.94;;;18.77;93.83
15884;BME280;8040;50.254;10.960;2023-07-20T00:10:58;97915.31;;;18.78;93.91
15884;BME280;8040;50.254;10.960;2023-07-20T00:13:23;97908.22;;;18.77;94.06
15884;BME280;8040;50.254;10.960;2023-07-20T00:15:49;97901.13;;;18.76;93.61
15884;BME280;8040;50.254;10.960;2023-07-20T00:18:14;97902.31;;;18.75;93.67
15884;BME280;8040;50.254;10.960;2023-07-20T00:20:40;97903.38;;;18.71;93.82
15884;BME280;8040;50.254;10.960;2023-07-20T00:23:05;97904.91;;;18.68;93.24
15884;BME280;8040;50.254;10.960;2023-07-20T00:25:32;97909.25;;;18.69;93.13
15884;BME280;8040;50.254;10.960;2023-07-20T00:27:58;97899.41;;;18.68;93.28
15884;BME280;8040;50.254;10.960;2023-07-20T00:33:32;97902.78;;;18.62;92.99
15884;BME280;8040;50.254;10.960;2023-07-20T00:35:58;97897.66;;;18.60;93.04
15884;BME280;8040;50.254;10.960;2023-07-20T00:38:23;97897.56;;;18.57;93.53
15884;BME280;8040;50.254;10.960;2023-07-20T00:40:48;97908.94;;;18.55;94.10
15884;BME280;8040;50.254;10.960;2023-07-20T00:43:14;97904.22;;;18.56;94.28
15884;BME280;8040;50.254;10.960;2023-07-20T00:45:40;97902.63;;;18.55;94.22
15884;BME280;8040;50.254;10.960;2023-07-20T00:48:06;97894.31;;;18.51;94.55
15884;BME280;8040;50.254;10.960;2023-07-20T00:50:31;97898.56;;;18.49;94.29
15884;BME280;8040;50.254;10.960;2023-07-20T00:53:04;97898.50;;;18.45;94.47
15884;BME280;8040;50.254;10.960;2023-07-20T00:55:32;97892.56;;;18.43;94.71
15884;BME280;8040;50.254;10.960;2023-07-20T00:57:58;97888.22;;;18.42;94.89
15884;BME280;8040;50.254;10.960;2023-07-20T01:00:23;97892.56;;;18.43;95.08
15884;BME280;8040;50.254;10.960;2023-07-20T01:02:48;97897.25;;;18.43;94.85
15884;BME280;8040;50.254;10.960;2023-07-20T01:05:14;97897.25;;;18.43;94.78
15884;BME280;8040;50.254;10.960;2023-07-20T01:07:46;97891.69;;;18.39;94.94
15884;BME280;8040;50.254;10.960;2023-07-20T01:10:18;97892.03;;;18.38;94.97
15884;BME280;8040;50.254;10.960;2023-07-20T01:12:47;97892.84;;;18.38;94.94
15884;BME280;8040;50.254;10.960;2023-07-20T01:18:34;97892.84;;;18.38;95.21
15884;BME280;8040;50.254;10.960;2023-07-20T01:21:02;97888.88;;;18.36;95.08
15884;BME280;8040;50.254;10.960;2023-07-20T01:23:35;97895.94;;;18.37;95.12
15884;BME280;8040;50.254;10.960;2023-07-20T01:26:11;97893.56;;;18.35;95.05
15884;BME280;8040;50.254;10.960;2023-07-20T01:33:51;97885.31;;;18.35;95.27
15884;BME280;8040;50.254;10.960;2023-07-20T01:36:17;97895.53;;;18.35;95.52
15884;BME280;8040;50.254;10.960;2023-07-20T01:38:46;97893.13;;;18.33;95.32
15884;BME280;8040;50.254;10.960;2023-07-20T01:41:12;97887.63;;;18.33;95.35
15884;BME280;8040;50.254;10.960;2023-07-20T01:43:37;97888.44;;;18.34;95.10
15884;BME280;8040;50.254;10.960;2023-07-20T01:46:02;97882.81;;;18.30;95.31
15884;BME280;8040;50.254;10.960;2023-07-20T01:48:28;97879.91;;;18.23;94.62
15884;BME280;8040;50.254;10.960;2023-07-20T01:50:53;97888.06;;;18.20;94.56
15884;BME280;8040;50.254;10.960;2023-07-20T01:53:19;97888.88;;;18.20;94.72
15884;BME280;8040;50.254;10.960;2023-07-20T01:55:44;97886.81;;;18.17;95.24
15884;BME280;8040;50.254;10.960;2023-07-20T01:58:09;97888.44;;;18.18;95.42
15884;BME280;8040;50.254;10.960;2023-07-20T02:00:37;97898.97;;;18.16;95.32
15884;BME280;8040;50.254;10.960;2023-07-20T02:03:02;97901.72;;;18.16;95.30
15884;BME280;8040;50.254;10.960;2023-07-20T02:05:27;97906.03;;;18.17;95.56
15884;BME280;8040;50.254;10.960;2023-07-20T02:07:52;97901.38;;;18.18;95.91
15884;BME280;8040;50.254;10.960;2023-07-20T02:10:18;97897.38;;;18.15;95.87
15884;BME280;8040;50.254;10.960;2023-07-20T02:12:43;97897.72;;;18.14;95.82
15884;BME280;8040;50.254;10.960;2023-07-20T02:15:09;97900.41;;;18.10;95.72
15884;BME280;8040;50.254;10.960;2023-07-20T02:17:35;97905.09;;;18.10;95.66
15884;BME280;8040;50.254;10.960;2023-07-20T02:20:00;97905.88;;;18.10;95.95
15884;BME280;8040;50.254;10.960;2023-07-20T02:22:29;97904.28;;;18.09;95.88
15884;BME280;8040;50.254;10.960;2023-07-20T02:24:54;97900.41;;;18.10;95.79
15884;BME280;8040;50.254;10.960;2023-07-20T02:27:19;97899.97;;;18.08;95.66
15884;BME280;8040;50.254;10.960;2023-07-20T02:29:44;97905.03;;;18.06;95.27
15884;BME280;8040;50.254;10.960;2023-07-20T02:32:10;97908.13;;;18.05;95.07
15884;BME280;8040;50.254;10.960;2023-07-20T02:34:35;97908.81;;;18.02;95.16
15884;BME280;8040;50.254;10.960;2023-07-20T02:37:01;97907.56;;;17.99;95.17
15884;BME280;8040;50.254;10.960;2023-07-20T02:39:27;97907.56;;;17.99;95.07
15884;BME280;8040;50.254;10.960;2023-07-20T02:41:52;97900.84;;;17.97;94.91
15884;BME280;8040;50.254;10.960;2023-07-20T02:50:23;97908.81;;;17.86;94.82
15884;BME280;8040;50.254;10.960;2023-07-20T02:52:49;97908.72;;;17.83;94.82
15884;BME280;8040;50.254;10.960;2023-07-20T02:55:15;97922.81;;;17.81;94.66
15884;BME280;8040;50.254;10.960;2023-07-20T02:57:40;97912.53;;;17.78;94.75
15884;BME280;8040;50.254;10.960;2023-07-20T03:00:07;97919.19;;;17.77;95.18
15884;BME280;8040;50.254;10.960;2023-07-20T03:02:32;97914.88;;;17.76;95.15
15884;BME280;8040;50.254;10.960;2023-07-20T03:04:58;97914.41;;;17.74;95.12
15884;BME280;8040;50.254;10.960;2023-07-20T03:07:24;97917.50;;;17.73;95.47
15884;BME280;8040;50.254;10.960;2023-07-20T03:09:49;97922.19;;;17.72;95.44
15884;BME280;8040;50.254;10.960;2023-07-20T03:12:14;97924.94;;;17.72;95.74
15884;BME280;8040;50.254;10.960;2023-07-20T03:14:40;97923.69;;;17.70;95.24
15884;BME280;8040;50.254;10.960;2023-07-20T03:17:05;97919.72;;;17.67;94.68
15884;BME280;8040;50.254;10.960;2023-07-20T03:19:31;97916.53;;;17.65;94.49
15884;BME280;8040;50.254;10.960;2023-07-20T03:21:56;97927.84;;;17.64;94.27
15884;BME280;8040;50.254;10.960;2023-07-20T03:24:21;97923.53;;;17.63;94.21
15884;BME280;8040;50.254;10.960;2023-07-20T03:26:47;97939.16;;;17.62;93.94
15884;BME280;8040;50.254;10.960;2023-07-20T03:29:12;97942.38;;;17.64;93.67
15884;BME280;8040;50.254;10.960;2023-07-20T03:31:38;97934.16;;;17.64;93.39
15884;BME280;8040;50.254;10.960;2023-07-20T03:34:04;97945.97;;;17.68;93.14
15884;BME280;8040;50.254;10.960;2023-07-20T03:36:30;97948.72;;;17.68;92.94
15884;BME280;8040;50.254;10.960;2023-07-20T03:38:56;97954.59;;;17.67;92.80
15884;BME280;8040;50.254;10.960;2023-07-20T03:41:21;97945.91;;;17.65;92.93
15884;BME280;8040;50.254;10.960;2023-07-20T03:43:47;97943.16;;;17.65;92.50
15884;BME280;8040;50.254;10.960;2023-07-20T03:46:12;97941.91;;;17.62;92.46
15884;BME280;8040;50.254;10.960;2023-07-20T03:48:37;97949.69;;;17.60;92.28
15884;BME280;8040;50.254;10.960;2023-07-20T03:57:09;97962.50;;;17.56;92.72
15884;BME280;8040;50.254;10.960;2023-07-20T03:59:34;97948.81;;;17.56;92.54
15884;BME280;8040;50.254;10.960;2023-07-20T04:02:00;97953.16;;;17.57;92.93
15884;BME280;8040;50.254;10.960;2023-07-20T04:04:25;97960.56;;;17.57;92.52
15884;BME280;8040;50.254;10.960;2023-07-20T04:06:50;97956.25;;;17.56;92.32
15884;BME280;8040;50.254;10.960;2023-07-20T04:09:16;97957.84;;;17.57;92.39
15884;BME280;8040;50.254;10.960;2023-07-20T04:11:41;97965.00;;;17.61;92.38
15884;BME280;8040;50.254;10.960;2023-07-20T04:14:06;97959.94;;;17.63;92.31
15884;BME280;8040;50.254;10.960;2023-07-20T04:19:09;97973.78;;;17.67;91.45
15884;BME280;8040;50.254;10.960;2023-07-20T04:21:39;97968.41;;;17.70;91.11
15884;BME280;8040;50.254;10.960;2023-07-20T04:24:04;97974.66;;;17.71;90.94
15884;BME280;8040;50.254;10.960;2023-07-20T04:26:29;97979.38;;;17.70;90.96
15884;BME280;8040;50.254;10.960;2023-07-20T04:28:55;97981.75;;;17.72;90.64
15884;BME280;8040;50.254;10.960;2023-07-20T04:31:20;97987.59;;;17.70;90.17
15884;BME280;8040;50.254;10.960;2023-07-20T04:33:46;97990.34;;;17.70;89.80
15884;BME280;8040;50.254;10.960;2023-07-20T04:36:11;97991.22;;;17.74;89.76
15884;BME280;8040;50.254;10.960;2023-07-20T04:38:39;97992.13;;;17.78;89.41
15884;BME280;8040;50.254;10.960;2023-07-20T04:41:04;97991.41;;;17.81;88.70
15884;BME280;8040;50.254;10.960;2023-07-20T04:43:29;97986.22;;;17.92;88.84
15884;BME280;8040;50.254;10.960;2023-07-20T04:45:55;97990.38;;;18.01;88.10
15884;BME280;8040;50.254;10.960;2023-07-20T04:48:20;97974.25;;;18.00;87.52
15884;BME280;8040;50.254;10.960;2023-07-20T04:50:46;97997.19;;;18.23;86.29
15884;BME280;8040;50.254;10.960;2023-07-20T04:53:11;98001.53;;;18.39;85.36
15884;BME280;8040;50.254;10.960;2023-07-20T04:55:37;97997.97;;;18.54;84.45
15884;BME280;8040;50.254;10.960;2023-07-20T04:58:03;97994.19;;;18.59;83.93
15884;BME280;8040;50.254;10.960;2023-07-20T05:03:13;97992.56;;;18.58;81.81
15884;BME280;8040;50.254;10.960;2023-07-20T05:05:38;97990.19;;;18.56;81.71
15884;BME280;8040;50.254;10.960;2023-07-20T05:08:04;97984.78;;;18.60;82.16
15884;BME280;8040;50.254;10.960;2023-07-20T05:10:29;97996.72;;;18.67;82.24
15884;BME280;8040;50.254;10.960;2023-07-20T05:12:54;97989.81;;;18.73;81.94
15884;BME280;8040;50.254;10.960;2023-07-20T05:15:20;97996.16;;;18.77;81.34
15884;BME280;8040;50.254;10.960;2023-07-20T05:17:45;97998.63;;;18.82;80.98
15884;BME280;8040;50.254;10.960;2023-07-20T05:20:11;97995.75;;;18.94;80.73
15884;BME280;8040;50.254;10.960;2023-07-20T05:22:40;97999.25;;;19.10;79.46
15884;BME280;8040;50.254;10.960;2023-07-20T05:25:06;98005.09;;;19.24;78.56
15884;BME280;8040;50.254;10.960;2023-07-20T05:27:33;97999.78;;;19.35;77.88
15884;BME280;8040;50.254;10.960;2023-07-20T05:29:58;97995.31;;;19.46;76.72
15884;BME280;8040;50.254;10.960;2023-07-20T05:32:23;97993.94;;;19.55;76.07
15884;BME280;8040;50.254;10.960;2023-07-20T05:34:51;97990.81;;;19.57;74.09
15884;BME280;8040;50.254;10.960;2023-07-20T05:37:16;97989.84;;;19.68;73.39
15884;BME280;8040;50.254;10.960;2023-07-20T05:39:41;97985.88;;;19.88;71.81
15884;BME280;8040;50.254;10.960;2023-07-20T05:42:07;97993.44;;;19.91;71.49
15884;BME280;8040;50.254;10.960;2023-07-20T05:44:32;97993.44;;;19.91;71.73
15884;BME280;8040;50.254;10.960;2023-07-20T05:46:58;97984.38;;;19.91;71.08
15884;BME280;8040;50.254;10.960;2023-07-20T05:49:23;97991.09;;;19.93;70.51
15884;BME280;8040;50.254;10.960;2023-07-20T05:51:48;97990.16;;;20.05;70.11
15884;BME280;8040;50.254;10.960;2023-07-20T05:54:14;97997.88;;;20.18;69.68
15884;BME280;8040;50.254;10.960;2023-07-20T05:56:39;97998.44;;;20.27;68.59
15884;BME280;8040;50.254;10.960;2023-07-20T05:59:04;97998.47;;;20.31;68.30
15884;BME280;8040;50.254;10.960;2023-07-20T06:01:30;98005.94;;;20.30;68.37
15884;BME280;8040;50.254;10.960;2023-07-20T06:03:55;97996.50;;;20.31;67.67
15884;BME280;8040;50.254;10.960;2023-07-20T06:08:55;98007.34;;;20.43;66.69
15884;BME280;8040;50.254;10.960;2023-07-20T06:11:20;98001.91;;;20.47;66.28
15884;BME280;8040;50.254;10.960;2023-07-20T06:13:46;98001.50;;;20.48;65.98
15884;BME280;8040;50.254;10.960;2023-07-20T06:16:11;98003.53;;;20.51;66.21
15884;BME280;8040;50.254;10.960;2023-07-20T06:18:36;97999.72;;;20.59;65.34
15884;BME280;8040;50.254;10.960;2023-07-20T06:21:02;98001.41;;;20.90;65.06
15884;BME280;8040;50.254;10.960;2023-07-20T06:23:27;98003.34;;;21.45;62.93
15884;BME280;8040;50.254;10.960;2023-07-20T06:25:52;98009.75;;;21.56;61.61
15884;BME280;8040;50.254;10.960;2023-07-20T06:31:40;98005.19;;;21.37;60.78
15884;BME280;8040;50.254;10.960;2023-07-20T06:34:05;98010.19;;;21.28;61.12
15884;BME280;8040;50.254;10.960;2023-07-20T06:36:30;98007.53;;;21.06;60.49
15884;BME280;8040;50.254;10.960;2023-07-20T06:38:56;98002.00;;;21.06;61.33
15884;BME280;8040;50.254;10.960;2023-07-20T06:41:21;98006.75;;;21.05;61.55
15884;BME280;8040;50.254;10.960;2023-07-20T06:43:47;98000.88;;;21.10;61.98
15884;BME280;8040;50.254;10.960;2023-07-20T06:46:12;98009.50;;;21.35;62.02
15884;BME280;8040;50.254;10.960;2023-07-20T06:48:38;97999.28;;;21.68;61.56
15884;BME280;8040;50.254;10.960;2023-07-20T06:51:03;98005.16;;;22.00;60.01
15884;BME280;8040;50.254;10.960;2023-07-20T06:53:29;98009.69;;;22.22;58.23
15884;BME280;8040;50.254;10.960;2023-07-20T06:55:54;98008.91;;;22.18;56.65
15884;BME280;8040;50.254;10.960;2023-07-20T06:58:22;98014.16;;;21.93;55.55
15884;BME280;8040;50.254;10.960;2023-07-20T07:00:48;98008.09;;;21.81;56.49
15884;BME280;8040;50.254;10.960;2023-07-20T07:03:13;98005.44;;;21.88;56.94
15884;BME280;8040;50.254;10.960;2023-07-20T07:05:38;98007.94;;;22.00;56.87
15884;BME280;8040;50.254;10.960;2023-07-20T07:08:07;97998.59;;;22.15;56.47
15884;BME280;8040;50.254;10.960;2023-07-20T07:10:34;97977.28;;;22.15;56.35
15884;BME280;8040;50.254;10.960;2023-07-20T07:13:00;98003.31;;;22.54;56.03
15884;BME280;8040;50.254;10.960;2023-07-20T07:15:25;98006.59;;;22.70;55.72
15884;BME280;8040;50.254;10.960;2023-07-20T07:17:50;98009.41;;;22.77;54.75
15884;BME280;8040;50.254;10.960;2023-07-20T07:20:16;98004.59;;;22.71;54.42
15884;BME280;8040;50.254;10.960;2023-07-20T07:22:41;97995.53;;;22.70;54.10
15884;BME280;8040;50.254;10.960;2023-07-20T07:25:09;98008.66;;;22.84;53.98
15884;BME280;8040;50.254;10.960;2023-07-20T07:27:34;98004.34;;;22.90;53.41
15884;BME280;8040;50.254;10.960;2023-07-20T07:30:00;98008.75;;;22.94;52.93
15884;BME280;8040;50.254;10.960;2023-07-20T07:32:25;98001.97;;;22.88;51.97
15884;BME280;8040;50.254;10.960;2023-07-20T07:37:25;98008.53;;;22.66;50.48
15884;BME280;8040;50.254;10.960;2023-07-20T07:39:51;98015.13;;;22.51;50.48
15884;BME280;8040;50.254;10.960;2023-07-20T07:42:16;98003.56;;;22.42;50.81
15884;BME280;8040;50.254;10.960;2023-07-20T07:44:41;98001.31;;;22.51;51.96
15884;BME280;8040;50.254;10.960;2023-07-20T07:47:07;97998.94;;;22.50;52.94
15884;BME280;8040;50.254;10.960;2023-07-20T07:49:32;97998.97;;;22.53;52.65
15884;BME280;8040;50.254;10.960;2023-07-20T07:51:57;98002.94;;;22.59;51.50
15884;BME280;8040;50.254;10.960;2023-07-20T07:54:23;98008.47;;;22.56;50.63
15884;BME280;8040;50.254;10.960;2023-07-20T07:56:50;98007.59;;;22.48;51.63
15884;BME280;8040;50.254;10.960;2023-07-20T07:59:16;98003.78;;;22.63;52.15
15884;BME280;8040;50.254;10.960;2023-07-20T08:01:41;98012.56;;;22.79;51.60
15884;BME280;8040;50.254;10.960;2023-07-20T08:04:07;98016.88;;;22.73;50.27
15884;BME280;8040;50.254;10.960;2023-07-20T08:06:33;98013.25;;;22.66;50.42
15884;BME280;8040;50.254;10.960;2023-07-20T08:08:58;98002.25;;;22.69;50.71
15884;BME280;8040;50.254;10.960;2023-07-20T08:11:24;98009.41;;;22.77;51.13
15884;BME280;8040;50.254;10.960;2023-07-20T08:13:49;98010.22;;;22.81;50.64
15884;BME280;8040;50.254;10.960;2023-07-20T08:16:14;98009.44;;;22.84;50.58
15884;BME280;8040;50.254;10.960;2023-07-20T08:18:43;98011.88;;;22.89;49.39
15884;BME280;8040;50.254;10.960;2023-07-20T08:21:09;98017.84;;;23.02;49.31
15884;BME280;8040;50.254;10.960;2023-07-20T08:23:34;98025.38;;;23.01;48.59
15884;BME280;8040;50.254;10.960;2023-07-20T08:25:59;98011.50;;;22.94;47.13
15884;BME280;8040;50.254;10.960;2023-07-20T08:28:26;98009.19;;;23.07;48.64
15884;BME280;8040;50.254;10.960;2023-07-20T08:30:51;97999.34;;;23.13;48.65
15884;BME280;8040;50.254;10.960;2023-07-20T08:33:17;98013.69;;;23.25;47.96
15884;BME280;8040;50.254;10.960;2023-07-20T08:35:46;98017.22;;;23.26;46.76
15884;BME280;8040;50.254;10.960;2023-07-20T08:38:12;98018.41;;;23.25;46.21
15884;BME280;8040;50.254;10.960;2023-07-20T08:44:05;98018.03;;;23.26;47.66
15884;BME280;8040;50.254;10.960;2023-07-20T08:46:30;98017.25;;;23.33;46.60
15884;BME280;8040;50.254;10.960;2023-07-20T08:48:56;98015.72;;;23.42;47.49
15884;BME280;8040;50.254;10.960;2023-07-20T08:51:21;98020.03;;;23.36;45.57
15884;BME280;8040;50.254;10.960;2023-07-20T08:53:47;98024.75;;;23.22;45.49
15884;BME280;8040;50.254;10.960;2023-07-20T08:56:13;98024.16;;;22.95;45.56
15884;BME280;8040;50.254;10.960;2023-07-20T08:58:40;98010.63;;;22.83;46.92
15884;BME280;8040;50.254;10.960;2023-07-20T09:01:08;98022.09;;;22.85;47.22
15884;BME280;8040;50.254;10.960;2023-07-20T09:03:33;98017.41;;;22.93;48.94
15884;BME280;8040;50.254;10.960;2023-07-20T09:06:02;98015.09;;;23.05;48.07
15884;BME280;8040;50.254;10.960;2023-07-20T09:08:27;98008.94;;;23.26;48.13
15884;BME280;8040;50.254;10.960;2023-07-20T09:10:53;98020.88;;;23.44;47.63
15884;BME280;8040;50.254;10.960;2023-07-20T09:13:18;98029.22;;;23.54;47.15
15884;BME280;8040;50.254;10.960;2023-07-20T09:15:47;98026.09;;;23.63;45.81
15884;BME280;8040;50.254;10.960;2023-07-20T09:18:14;98019.34;;;23.57;44.16
15884;BME280;8040;50.254;10.960;2023-07-20T09:20:48;98022.13;;;23.60;44.53
15884;BME280;8040;50.254;10.960;2023-07-20T09:23:13;98036.81;;;23.71;44.98
15884;BME280;8040;50.254;10.960;2023-07-20T09:25:38;98031.31;;;23.82;45.57
15884;BME280;8040;50.254;10.960;2023-07-20T09:28:05;98036.94;;;23.89;45.93
15884;BME280;8040;50.254;10.960;2023-07-20T09:30:31;98029.00;;;23.87;45.03
15884;BME280;8040;50.254;10.960;2023-07-20T09:32:56;98028.59;;;23.85;43.87
15884;BME280;8040;50.254;10.960;2023-07-20T09:35:22;98031.78;;;23.91;45.05
15884;BME280;8040;50.254;10.960;2023-07-20T09:40:19;98038.72;;;23.50;43.53
15884;BME280;8040;50.254;10.960;2023-07-20T09:42:45;98033.53;;;23.41;44.68
15884;BME280;8040;50.254;10.960;2023-07-20T09:45:11;98042.25;;;23.43;45.22
15884;BME280;8040;50.254;10.960;2023-07-20T09:47:37;98010.94;;;23.29;44.96
15884;BME280;8040;50.254;10.960;2023-07-20T09:50:03;98035.91;;;23.39;44.87
15884;BME280;8040;50.254;10.960;2023-07-20T09:52:29;98041.41;;;23.32;46.13
15884;BME280;8040;50.254;10.960;2023-07-20T09:54:54;98035.09;;;23.39;46.47
15884;BME280;8040;50.254;10.960;2023-07-20T09:57:21;98033.53;;;23.41;45.75
15884;BME280;8040;50.254;10.960;2023-07-20T09:59:46;98038.28;;;23.41;45.83
15884;BME280;8040;50.254;10.960;2023-07-20T10:02:32;98023.97;;;23.28;45.59
15884;BME280;8040;50.254;10.960;2023-07-20T10:04:58;98017.25;;;23.29;46.78
15884;BME280;8040;50.254;10.960;2023-07-20T10:07:26;98019.25;;;23.32;45.43
15884;BME280;8040;50.254;10.960;2023-07-20T10:09:52;98016.88;;;23.31;44.21
15884;BME280;8040;50.254;10.960;2023-07-20T10:18:55;98017.72;;;23.45;44.04
15884;BME280;8040;50.254;10.960;2023-07-20T10:21:17;98021.59;;;23.27;43.49
15884;BME280;8040;50.254;10.960;2023-07-20T10:23:43;98015.63;;;23.21;43.57
15884;BME280;8040;50.254;10.960;2023-07-20T10:26:08;98017.94;;;23.12;43.24
15884;BME280;8040;50.254;10.960;2023-07-20T10:28:35;98019.97;;;23.22;44.53
15884;BME280;8040;50.254;10.960;2023-07-20T10:31:03;98016.84;;;23.27;45.44
15884;BME280;8040;50.254;10.960;2023-07-20T10:33:31;98027.56;;;23.36;44.80
15884;BME280;8040;50.254;10.960;2023-07-20T10:36:06;98028.78;;;23.38;45.60
15884;BME280;8040;50.254;10.960;2023-07-20T10:38:44;98030.00;;;23.48;46.97
15884;BME280;8040;50.254;10.960;2023-07-20T10:41:21;98032.00;;;23.54;47.79
15884;BME280;8040;50.254;10.960;2023-07-20T10:43:47;98037.53;;;23.54;48.44
15884;BME280;8040;50.254;10.960;2023-07-20T10:46:13;98028.84;;;23.52;48.52
15884;BME280;8040;50.254;10.960;2023-07-20T10:51:23;98023.28;;;23.52;47.50
15884;BME280;8040;50.254;10.960;2023-07-20T10:53:48;98021.72;;;23.55;46.84
15884;BME280;8040;50.254;10.960;2023-07-20T10:56:22;98020.97;;;23.61;45.27
15884;BME280;8040;50.254;10.960;2023-07-20T10:58:47;98024.47;;;23.44;43.06
15884;BME280;8040;50.254;10.960;2023-07-20T11:01:13;98014.13;;;23.34;44.43
15884;BME280;8040;50.254;10.960;2023-07-20T11:03:39;98019.31;;;23.43;45.54
15884;BME280;8040;50.254;10.960;2023-07-20T11:09:06;98004.78;;;23.81;43.77
15884;BME280;8040;50.254;10.960;2023-07-20T11:11:37;98005.66;;;23.88;43.09
15884;BME280;8040;50.254;10.960;2023-07-20T11:14:03;97996.16;;;23.96;42.82
15884;BME280;8040;50.254;10.960;2023-07-20T11:19:00;97995.38;;;23.99;43.39
15884;BME280;8040;50.254;10.960;2023-07-20T11:21:26;97988.59;;;23.83;38.58
15884;BME280;8040;50.254;10.960;2023-07-20T11:23:52;97981.84;;;23.73;41.23
15884;BME280;8040;50.254;10.960;2023-07-20T11:26:18;97981.44;;;23.82;41.78
15884;BME280;8040;50.254;10.960;2023-07-20T11:28:48;97972.00;;;23.90;41.88
15884;BME280;8040;50.254;10.960;2023-07-20T11:31:14;97980.34;;;24.04;42.04
15884;BME280;8040;50.254;10.960;2023-07-20T11:33:41;97986.69;;;24.04;41.25
15884;BME280;8040;50.254;10.960;2023-07-20T11:36:08;97972.03;;;24.14;39.55
15884;BME280;8040;50.254;10.960;2023-07-20T11:38:34;97967.31;;;24.25;40.93
15884;BME280;8040;50.254;10.960;2023-07-20T11:41:02;97978.38;;;24.36;42.74
15884;BME280;8040;50.254;10.960;2023-07-20T11:43:27;97982.34;;;24.31;42.32
15884;BME280;8040;50.254;10.960;2023-07-20T11:45:53;97984.34;;;24.31;43.26
15884;BME280;8040;50.254;10.960;2023-07-20T11:48:18;97976.03;;;24.31;41.92
15884;BME280;8040;50.254;10.960;2023-07-20T11:50:43;97987.50;;;24.43;43.00
15884;BME280;8040;50.254;10.960;2023-07-20T11:53:09;97985.50;;;24.37;41.40
15884;BME280;8040;50.254;10.960;2023-07-20T11:55:34;97977.22;;;24.40;42.58
15884;BME280;8040;50.254;10.960;2023-07-20T11:58:03;97981.56;;;24.38;40.97
15884;BME280;8040;50.254;10.960;2023-07-20T12:00:29;97981.19;;;24.50;42.91
15884;BME280;8040;50.254;10.960;2023-07-20T12:02:54;97977.59;;;24.53;40.65
15884;BME280;8040;50.254;10.960;2023-07-20T12:05:21;97983.16;;;24.53;40.28
15884;BME280;8040;50.254;10.960;2023-07-20T12:07:47;97976.81;;;24.52;40.72
15884;BME280;8040;50.254;10.960;2023-07-20T12:10:13;97976.03;;;24.52;40.72
15884;BME280;8040;50.254;10.960;2023-07-20T12:12:38;97973.25;;;24.38;40.36
15884;BME280;8040;50.254;10.960;2023-07-20T12:15:19;97979.59;;;24.14;41.44
15884;BME280;8040;50.254;10.960;2023-07-20T12:17:45;97980.72;;;23.95;41.68
15884;BME280;8040;50.254;10.960;2023-07-20T12:20:11;97978.34;;;23.94;42.07
15884;BME280;8040;50.254;10.960;2023-07-20T12:22:43;97979.16;;;23.98;42.42
15884;BME280;8040;50.254;10.960;2023-07-20T12:25:08;97987.09;;;24.06;43.72
15884;BME280;8040;50.254;10.960;2023-07-20T12:27:37;97966.88;;;23.95;42.49
15884;BME280;8040;50.254;10.960;2023-07-20T12:30:04;97970.84;;;23.94;42.14
15884;BME280;8040;50.254;10.960;2023-07-20T12:32:29;97976.69;;;23.75;41.87
15884;BME280;8040;50.254;10.960;2023-07-20T12:34:54;97977.09;;;23.74;42.39
15884;BME280;8040;50.254;10.960;2023-07-20T12:37:20;97973.56;;;23.80;42.76
15884;BME280;8040;50.254;10.960;2023-07-20T12:39:45;97975.13;;;23.85;42.94
15884;BME280;8040;50.254;10.960;2023-07-20T12:42:12;97978.28;;;23.83;42.16
15884;BME280;8040;50.254;10.960;2023-07-20T12:44:39;97979.88;;;23.84;41.93
15884;BME280;8040;50.254;10.960;2023-07-20T12:47:04;97990.94;;;23.77;41.88
15884;BME280;8040;50.254;10.960;2023-07-20T12:49:29;97992.94;;;23.84;43.51
15884;BME280;8040;50.254;10.960;2023-07-20T12:51:55;97998.41;;;23.63;39.90
15884;BME280;8040;50.254;10.960;2023-07-20T12:54:20;97989.19;;;23.31;40.00
15884;BME280;8040;50.254;10.960;2023-07-20T12:56:46;97991.44;;;23.15;40.16
15884;BME280;8040;50.254;10.960;2023-07-20T12:59:11;97991.00;;;23.06;41.00
15884;BME280;8040;50.254;10.960;2023-07-20T13:01:36;97978.72;;;23.00;40.90
15884;BME280;8040;50.254;10.960;2023-07-20T13:04:03;97977.81;;;22.78;41.42
15884;BME280;8040;50.254;10.960;2023-07-20T13:06:28;97964.31;;;22.70;42.26
15884;BME280;8040;50.254;10.960;2023-07-20T13:08:54;97975.00;;;22.71;42.65
15884;BME280;8040;50.254;10.960;2023-07-20T13:11:21;97975.34;;;22.66;42.23
15884;BME280;8040;50.254;10.960;2023-07-20T13:13:47;97976.03;;;22.53;39.00
15884;BME280;8040;50.254;10.960;2023-07-20T13:16:12;97978.00;;;22.49;39.10
15884;BME280;8040;50.254;10.960;2023-07-20T13:33:42;97972.38;;;22.99;41.01
15884;BME280;8040;50.254;10.960;2023-07-20T13:44:40;97965.06;;;23.28;39.19
15884;BME280;8040;50.254;10.960;2023-07-20T13:47:14;97858.88;;;22.75;40.00
15884;BME280;8040;50.254;10.960;2023-07-20T13:49:39;97964.41;;;23.69;42.58
15884;BME280;8040;50.254;10.960;2023-07-20T13:52:05;97959.69;;;23.77;39.27
15884;BME280;8040;50.254;10.960;2023-07-20T13:57:42;97956.13;;;23.76;39.77
15884;BME280;8040;50.254;10.960;2023-07-20T14:00:11;97954.94;;;23.81;36.74
15884;BME280;8040;50.254;10.960;2023-07-20T14:02:36;97955.75;;;23.81;37.48
15884;BME280;8040;50.254;10.960;2023-07-20T14:05:02;97962.47;;;23.80;36.88
15884;BME280;8040;50.254;10.960;2023-07-20T14:07:33;97938.66;;;23.58;36.99
15884;BME280;8040;50.254;10.960;2023-07-20T14:10:12;97940.66;;;23.58;38.36
15884;BME280;8040;50.254;10.960;2023-07-20T14:12:41;97948.16;;;23.61;39.01
15884;BME280;8040;50.254;10.960;2023-07-20T14:15:33;97939.47;;;23.66;38.47
15884;BME280;8040;50.254;10.960;2023-07-20T14:18:06;97938.31;;;23.77;39.72
15884;BME280;8040;50.254;10.960;2023-07-20T14:20:31;97943.47;;;23.82;38.08
15884;BME280;8040;50.254;10.960;2023-07-20T14:23:08;97936.38;;;23.95;40.19
15884;BME280;8040;50.254;10.960;2023-07-20T14:25:34;97935.63;;;24.05;38.66
15884;BME280;8040;50.254;10.960;2023-07-20T14:28:02;97940.78;;;24.07;38.34